createdAt,value
2018-05-15T00:00:00.560Z,65.26
2018-05-15T00:01:00.551Z,64.88
2018-05-15T00:02:00.543Z,65.17
2018-05-15T00:03:00.518Z,65.36
2018-05-15T00:04:00.503Z,65.36
2018-05-15T00:05:00.492Z,64.78
2018-05-15T00:06:00.473Z,65.55
2018-05-15T00:07:00.460Z,64.78
2018-05-15T00:08:00.446Z,64.69
2018-05-15T00:09:00.445Z,65.74
2018-05-15T00:10:00.422Z,65.45
2018-05-15T00:11:00.454Z,65.64
2018-05-15T00:12:00.391Z,66.50
2018-05-15T00:13:00.375Z,67.08
2018-05-15T00:14:00.410Z,66.70
2018-05-15T00:15:00.345Z,66.70
2018-05-15T00:16:00.331Z,65.93
2018-05-15T00:17:00.317Z,65.55
2018-05-15T00:18:00.301Z,65.64
2018-05-15T00:19:00.292Z,65.45
2018-05-15T00:20:00.281Z,65.84
2018-05-15T00:21:00.258Z,65.64
2018-05-15T00:22:00.244Z,65.26
2018-05-15T00:23:00.228Z,66.70
2018-05-15T00:24:00.217Z,66.99
2018-05-15T00:25:00.202Z,66.41
2018-05-15T00:26:00.185Z,65.64
2018-05-15T00:27:00.176Z,65.84
2018-05-15T00:28:00.156Z,65.74
2018-05-15T00:29:00.140Z,66.70
2018-05-15T00:30:00.127Z,66.60
2018-05-15T00:31:00.181Z,66.41
2018-05-15T00:32:00.102Z,66.41
2018-05-15T00:33:00.088Z,66.60
2018-05-15T00:34:00.067Z,66.41
2018-05-15T00:35:00.055Z,66.31
2018-05-15T00:36:00.038Z,66.41
2018-05-15T00:37:00.025Z,66.41
2018-05-15T00:38:00.012Z,66.60
2018-05-15T00:38:59.995Z,66.31
2018-05-15T00:39:59.981Z,66.41
2018-05-15T00:40:59.966Z,66.79
2018-05-15T00:42:00.022Z,67.08
2018-05-15T00:42:59.937Z,66.60
2018-05-15T00:43:59.923Z,66.41
2018-05-15T00:44:59.906Z,65.84
2018-05-15T00:45:59.896Z,65.74
2018-05-15T00:46:59.877Z,65.84
2018-05-15T00:47:59.862Z,65.74
2018-05-15T00:48:59.849Z,65.64
2018-05-15T00:49:59.833Z,65.55
2018-05-15T00:50:59.824Z,66.41
2018-05-15T00:51:59.803Z,65.55
2018-05-15T00:52:59.787Z,65.55
2018-05-15T00:53:59.781Z,65.93
2018-05-15T00:54:59.759Z,66.31
2018-05-15T00:55:59.749Z,66.13
2018-05-15T00:56:59.732Z,66.60
2018-05-15T00:57:59.712Z,66.41
2018-05-15T00:58:59.701Z,65.74
2018-05-15T00:59:59.688Z,66.50
2018-05-15T01:00:59.668Z,65.93
2018-05-15T01:01:59.654Z,65.64
2018-05-15T01:02:59.641Z,65.55
2018-05-15T01:03:59.630Z,65.93
2018-05-15T01:04:59.611Z,65.36
2018-05-15T01:05:59.594Z,65.55
2018-05-15T01:06:59.582Z,66.50
2018-05-15T01:07:59.568Z,66.99
2018-05-15T01:08:59.550Z,67.18
2018-05-15T01:09:59.534Z,67.08
2018-05-15T01:10:59.520Z,66.99
2018-05-15T01:11:59.509Z,66.50
2018-05-15T01:12:59.491Z,66.03
2018-05-15T01:13:59.476Z,67.05
2018-05-15T01:14:59.462Z,66.38
2018-05-15T01:15:59.448Z,66.99
2018-05-15T01:16:59.440Z,66.76
2018-05-15T01:17:59.418Z,66.95
2018-05-15T01:18:59.401Z,66.89
2018-05-15T01:19:59.390Z,67.91
2018-05-15T01:20:59.374Z,68.96
2018-05-15T01:21:59.359Z,69.05
2018-05-15T01:22:59.344Z,69.05
2018-05-15T01:23:59.331Z,68.67
2018-05-15T01:24:59.313Z,68.67
2018-05-15T01:25:59.301Z,68.67
2018-05-15T01:26:59.287Z,68.86
2018-05-15T01:27:59.269Z,67.81
2018-05-15T01:28:59.253Z,68.76
2018-05-15T01:29:59.237Z,69.15
2018-05-15T01:30:59.231Z,68.76
2018-05-15T01:31:59.210Z,69.72
2018-05-15T01:32:59.195Z,69.53
2018-05-15T01:33:59.177Z,68.96
2018-05-15T01:34:59.164Z,69.24
2018-05-15T01:35:59.148Z,68.96
2018-05-15T01:36:59.134Z,68.96
2018-05-15T01:37:59.119Z,68.96
2018-05-15T01:38:59.104Z,68.67
2018-05-15T01:39:59.090Z,68.67
2018-05-15T01:40:59.075Z,68.48
2018-05-15T01:41:59.065Z,68.57
2018-05-15T01:42:59.046Z,68.19
2018-05-15T01:43:59.030Z,68.67
2018-05-15T01:44:59.015Z,68.96
2018-05-15T01:45:58.999Z,68.10
2018-05-15T01:46:58.990Z,68.10
2018-05-15T01:47:58.976Z,68.19
2018-05-15T01:48:58.991Z,68.57
2018-05-15T01:49:58.938Z,68.67
2018-05-15T01:50:58.924Z,68.96
2018-05-15T01:51:58.909Z,69.15
2018-05-15T01:52:58.898Z,68.67
2018-05-15T01:53:58.879Z,68.76
2018-05-15T01:54:58.866Z,68.76
2018-05-15T01:55:58.848Z,69.11
2018-05-15T01:56:58.834Z,69.31
2018-05-15T01:57:58.818Z,69.11
2018-05-15T01:58:58.803Z,69.68
2018-05-15T01:59:58.840Z,69.43
2018-05-15T02:00:58.773Z,70.26
2018-05-15T02:01:58.758Z,70.36
2018-05-15T02:02:58.742Z,70.36
2018-05-15T02:03:58.731Z,69.11
2018-05-15T02:04:58.712Z,70.07
2018-05-15T02:05:58.697Z,70.64
2018-05-15T02:06:58.682Z,70.73
2018-05-15T02:07:58.670Z,70.36
2018-05-15T02:08:58.653Z,70.36
2018-05-15T02:09:58.636Z,70.36
2018-05-15T02:10:58.619Z,70.36
2018-05-15T02:11:58.615Z,70.26
2018-05-15T02:12:58.593Z,69.40
2018-05-15T02:13:58.575Z,69.31
2018-05-15T02:14:58.562Z,69.11
2018-05-15T02:15:58.545Z,70.64
2018-05-15T02:16:58.530Z,71.31
2018-05-15T02:17:58.515Z,71.02
2018-05-15T02:18:58.500Z,71.98
2018-05-15T02:19:58.484Z,72.26
2018-05-15T02:20:58.468Z,72.26
2018-05-15T02:21:58.454Z,71.88
2018-05-15T02:22:58.438Z,71.69
2018-05-15T02:23:58.421Z,71.31
2018-05-15T02:24:58.408Z,71.50
2018-05-15T02:25:58.393Z,71.59
2018-05-15T02:26:58.377Z,70.73
2018-05-15T02:27:58.362Z,71.50
2018-05-15T02:28:58.347Z,70.54
2018-05-15T02:29:58.333Z,71.21
2018-05-15T02:30:58.316Z,70.16
2018-05-15T02:31:58.301Z,70.64
2018-05-15T02:32:58.288Z,70.07
2018-05-15T02:33:58.271Z,70.07
2018-05-15T02:34:58.254Z,70.36
2018-05-15T02:35:58.240Z,68.92
2018-05-15T02:36:58.224Z,69.59
2018-05-15T02:37:58.207Z,68.73
2018-05-15T02:38:58.194Z,69.68
2018-05-15T02:39:58.177Z,68.82
2018-05-15T02:40:58.165Z,69.11
2018-05-15T02:41:58.147Z,69.15
2018-05-15T02:42:58.131Z,69.68
2018-05-15T02:43:58.122Z,69.21
2018-05-15T02:44:58.103Z,69.11
2018-05-15T02:45:58.085Z,70.26
2018-05-15T02:46:58.070Z,69.11
2018-05-15T02:47:58.063Z,70.54
2018-05-15T02:48:58.040Z,70.54
2018-05-15T02:49:58.025Z,70.83
2018-05-15T02:50:58.009Z,72.17
2018-05-15T02:51:57.995Z,70.92
2018-05-15T02:52:57.979Z,71.59
2018-05-15T02:53:57.963Z,71.59
2018-05-15T02:54:57.946Z,71.78
2018-05-15T02:55:57.936Z,72.45
2018-05-15T02:56:57.918Z,72.83
2018-05-15T02:57:57.902Z,72.74
2018-05-15T02:58:57.887Z,73.32
2018-05-15T02:59:57.872Z,73.03
2018-05-15T03:00:57.856Z,73.22
2018-05-15T03:01:57.839Z,73.37
2018-05-15T03:02:57.824Z,73.22
2018-05-15T03:03:57.822Z,73.37
2018-05-15T03:04:57.801Z,73.94
2018-05-15T03:05:57.784Z,75.09
2018-05-15T03:06:57.770Z,74.71
2018-05-15T03:07:57.747Z,75.37
2018-05-15T03:08:57.738Z,74.61
2018-05-15T03:09:57.715Z,75.18
2018-05-15T03:10:57.703Z,75.47
2018-05-15T03:11:57.688Z,75.57
2018-05-15T03:12:57.669Z,75.57
2018-05-15T03:13:57.654Z,75.47
2018-05-15T03:14:57.641Z,75.18
2018-05-15T03:15:57.624Z,74.71
2018-05-15T03:16:57.630Z,75.28
2018-05-15T03:17:57.593Z,74.32
2018-05-15T03:18:57.581Z,75.28
2018-05-15T03:19:57.561Z,75.28
2018-05-15T03:20:57.546Z,75.18
2018-05-15T03:21:57.536Z,74.61
2018-05-15T03:22:57.517Z,73.94
2018-05-15T03:23:57.499Z,74.42
2018-05-15T03:24:57.486Z,74.80
2018-05-15T03:25:57.469Z,74.71
2018-05-15T03:26:57.453Z,74.42
2018-05-15T03:27:57.437Z,74.80
2018-05-15T03:28:57.421Z,74.04
2018-05-15T03:29:57.405Z,74.61
2018-05-15T03:30:57.387Z,74.61
2018-05-15T03:31:57.375Z,75.18
2018-05-15T03:32:57.359Z,75.47
2018-05-15T03:33:57.342Z,75.57
2018-05-15T03:34:57.329Z,75.66
2018-05-15T03:35:57.311Z,75.47
2018-05-15T03:36:57.296Z,76.04
2018-05-15T03:37:57.278Z,76.04
2018-05-15T03:38:57.264Z,75.95
2018-05-15T03:39:57.248Z,75.18
2018-05-15T03:40:57.233Z,75.76
2018-05-15T03:41:57.215Z,76.42
2018-05-15T03:42:57.201Z,76.42
2018-05-15T03:43:57.186Z,77.00
2018-05-15T03:44:57.171Z,76.62
2018-05-15T03:45:57.155Z,76.14
2018-05-15T03:46:57.145Z,76.52
2018-05-15T03:47:57.121Z,76.04
2018-05-15T03:48:57.109Z,76.23
2018-05-15T03:49:57.093Z,75.57
2018-05-15T03:50:57.072Z,75.76
2018-05-15T03:51:57.057Z,75.57
2018-05-15T03:53:20.867Z,75.37
2018-05-15T03:54:20.841Z,75.76
2018-05-15T03:55:20.829Z,75.66
2018-05-15T03:56:20.812Z,75.85
2018-05-15T03:57:20.799Z,76.04
2018-05-15T03:58:20.777Z,75.76
2018-05-15T03:59:20.764Z,75.66
2018-05-15T04:00:20.746Z,75.47
2018-05-15T04:01:20.735Z,75.47
2018-05-15T04:02:20.747Z,75.85
2018-05-15T04:03:20.700Z,75.85
2018-05-15T04:04:20.683Z,76.04
2018-05-15T04:05:20.670Z,75.95
2018-05-15T04:06:20.657Z,75.47
2018-05-15T04:07:20.636Z,75.95
2018-05-15T04:08:20.620Z,76.33
2018-05-15T04:09:20.605Z,75.66
2018-05-15T04:10:20.588Z,76.14
2018-05-15T04:11:20.577Z,75.66
2018-05-15T04:12:20.559Z,75.42
2018-05-15T04:13:20.546Z,75.32
2018-05-15T04:14:20.527Z,75.95
2018-05-15T04:15:20.511Z,76.18
2018-05-15T04:16:20.493Z,75.79
2018-05-15T04:17:20.487Z,75.42
2018-05-15T04:18:20.464Z,75.42
2018-05-15T04:19:20.450Z,75.70
2018-05-15T04:20:20.432Z,75.32
2018-05-15T04:21:20.416Z,75.22
2018-05-15T04:22:20.402Z,74.84
2018-05-15T04:23:20.385Z,74.65
2018-05-15T04:24:20.368Z,74.46
2018-05-15T04:25:20.354Z,74.55
2018-05-15T04:26:20.340Z,74.74
2018-05-15T04:27:20.321Z,75.32
2018-05-15T04:28:20.359Z,75.51
2018-05-15T04:29:20.290Z,76.27
2018-05-15T04:30:20.273Z,75.60
2018-05-15T04:31:20.265Z,75.51
2018-05-15T04:32:20.244Z,75.98
2018-05-15T04:33:20.228Z,75.60
2018-05-15T04:34:20.214Z,75.51
2018-05-15T04:35:20.298Z,75.22
2018-05-15T04:36:20.182Z,75.32
2018-05-15T04:37:20.166Z,75.51
2018-05-15T04:38:20.150Z,75.98
2018-05-15T04:39:20.137Z,75.60
2018-05-15T04:40:20.120Z,75.16
2018-05-15T04:41:20.113Z,75.51
2018-05-15T04:42:20.088Z,74.59
2018-05-15T04:43:20.083Z,74.69
2018-05-15T04:44:20.057Z,74.88
2018-05-15T04:45:20.041Z,75.83
2018-05-15T04:46:20.025Z,75.35
2018-05-15T04:47:20.013Z,74.78
2018-05-15T04:48:19.993Z,74.88
2018-05-15T04:49:20.011Z,74.78
2018-05-15T04:50:19.965Z,75.35
2018-05-15T04:51:19.948Z,75.07
2018-05-15T04:52:19.933Z,74.78
2018-05-15T04:53:19.924Z,73.92
2018-05-15T04:54:19.901Z,74.69
2018-05-15T04:55:19.892Z,74.88
2018-05-15T04:56:19.875Z,74.59
2018-05-15T04:57:19.871Z,74.88
2018-05-15T04:58:19.841Z,74.78
2018-05-15T04:59:19.825Z,74.30
2018-05-15T05:00:19.811Z,74.30
2018-05-15T05:01:19.795Z,74.63
2018-05-15T05:02:19.779Z,74.82
2018-05-15T05:03:19.771Z,74.73
2018-05-15T05:04:19.748Z,74.73
2018-05-15T05:05:19.733Z,74.63
2018-05-15T05:06:19.723Z,74.73
2018-05-15T05:07:19.707Z,75.01
2018-05-15T05:08:19.691Z,74.34
2018-05-15T05:09:19.671Z,74.34
2018-05-15T05:10:19.656Z,74.53
2018-05-15T05:11:19.643Z,74.05
2018-05-15T05:12:19.626Z,74.15
2018-05-15T05:13:19.613Z,75.01
2018-05-15T05:14:19.597Z,73.48
2018-05-15T05:15:19.582Z,74.44
2018-05-15T05:16:19.566Z,73.39
2018-05-15T05:17:19.550Z,73.99
2018-05-15T05:18:19.535Z,73.43
2018-05-15T05:19:19.525Z,73.33
2018-05-15T05:20:19.507Z,73.61
2018-05-15T05:21:19.489Z,72.75
2018-05-15T05:22:19.475Z,73.14
2018-05-15T05:23:19.466Z,72.85
2018-05-15T05:24:19.447Z,72.94
2018-05-15T05:25:19.429Z,73.61
2018-05-15T05:26:19.415Z,72.75
2018-05-15T05:27:19.408Z,72.85
2018-05-15T05:28:19.384Z,72.94
2018-05-15T05:29:19.375Z,73.14
2018-05-15T05:30:19.360Z,73.55
2018-05-15T05:31:19.342Z,72.79
2018-05-15T05:32:19.330Z,72.31
2018-05-15T05:33:19.394Z,72.41
2018-05-15T05:34:19.296Z,72.50
2018-05-15T05:35:19.281Z,73.36
2018-05-15T05:36:19.266Z,72.50
2018-05-15T05:37:19.252Z,72.31
2018-05-15T05:38:19.239Z,72.12
2018-05-15T05:39:19.226Z,72.88
2018-05-15T05:40:19.208Z,72.41
2018-05-15T05:41:19.197Z,72.31
2018-05-15T05:42:19.180Z,71.83
2018-05-15T05:43:19.183Z,72.16
2018-05-15T05:44:19.152Z,72.25
2018-05-15T05:45:19.140Z,72.12
2018-05-15T05:46:19.127Z,71.20
2018-05-15T05:47:19.109Z,71.20
2018-05-15T05:48:19.092Z,70.72
2018-05-15T05:49:19.079Z,71.30
2018-05-15T05:50:19.070Z,70.91
2018-05-15T05:51:19.056Z,71.68
2018-05-15T05:52:19.034Z,71.11
2018-05-15T05:53:19.022Z,71.58
2018-05-15T05:54:19.009Z,70.72
2018-05-15T05:55:19.002Z,70.56
2018-05-15T05:56:18.978Z,70.37
2018-05-15T05:57:18.964Z,70.66
2018-05-15T05:58:18.959Z,70.56
2018-05-15T05:59:18.939Z,71.23
2018-05-15T06:00:18.922Z,70.47
2018-05-15T06:01:18.908Z,70.09
2018-05-15T06:02:18.894Z,70.95
2018-05-15T06:03:18.881Z,70.66
2018-05-15T06:04:18.868Z,69.51
2018-05-15T06:05:18.852Z,69.07
2018-05-15T06:06:18.841Z,69.54
2018-05-15T06:07:18.833Z,70.41
2018-05-15T06:08:18.814Z,69.26
2018-05-15T06:09:18.795Z,70.21
2018-05-15T06:10:18.785Z,69.17
2018-05-15T06:11:18.771Z,69.45
2018-05-15T06:12:18.764Z,68.97
2018-05-15T06:13:18.740Z,69.45
2018-05-15T06:14:18.768Z,69.07
2018-05-15T06:15:18.718Z,69.17
2018-05-15T06:16:18.698Z,69.39
2018-05-15T06:17:18.694Z,69.07
2018-05-15T06:18:18.674Z,70.83
2018-05-15T06:19:18.665Z,69.10
2018-05-15T06:20:18.645Z,68.14
2018-05-15T06:21:18.631Z,68.14
2018-05-15T06:22:18.620Z,67.66
2018-05-15T06:23:18.606Z,67.41
2018-05-15T06:24:18.595Z,67.18
2018-05-15T06:25:18.579Z,67.69
2018-05-15T06:26:18.566Z,67.50
2018-05-15T06:27:18.552Z,68.27
2018-05-15T06:28:18.561Z,67.32
2018-05-15T06:29:18.527Z,67.54
2018-05-15T06:30:18.528Z,67.44
2018-05-15T06:31:18.590Z,66.49
2018-05-15T06:32:18.503Z,65.52
2018-05-15T06:33:18.475Z,65.81
2018-05-15T06:34:18.461Z,65.33
2018-05-15T06:35:18.452Z,65.05
2018-05-15T06:36:18.437Z,64.98
2018-05-15T06:37:18.423Z,64.98
2018-05-15T06:38:18.419Z,64.79
2018-05-15T06:39:18.400Z,64.98
2018-05-15T06:40:18.386Z,64.98
2018-05-15T06:41:18.377Z,64.69
2018-05-15T06:42:18.365Z,64.79
2018-05-15T06:43:18.353Z,64.59
2018-05-15T06:44:18.336Z,64.63
2018-05-15T06:45:18.329Z,63.38
2018-05-15T06:46:18.312Z,63.57
2018-05-15T06:47:18.302Z,64.34
2018-05-15T06:48:18.287Z,63.96
2018-05-15T06:49:18.276Z,63.41
2018-05-15T06:50:18.265Z,63.22
2018-05-15T06:51:18.253Z,61.68
2018-05-15T06:52:18.240Z,61.49
2018-05-15T06:53:18.231Z,61.78
2018-05-15T06:54:18.219Z,61.78
2018-05-15T06:55:18.204Z,61.14
2018-05-15T06:56:18.195Z,61.33
2018-05-15T06:57:18.183Z,61.71
2018-05-15T06:58:18.175Z,61.23
2018-05-15T06:59:18.159Z,60.66
2018-05-15T07:00:18.145Z,59.69
2018-05-15T07:01:18.135Z,60.69
2018-05-15T07:02:18.123Z,59.82
2018-05-15T07:03:18.111Z,60.69
2018-05-15T07:04:18.100Z,59.82
2018-05-15T07:05:18.090Z,58.86
2018-05-15T07:06:18.079Z,58.67
2018-05-15T07:07:18.077Z,58.09
2018-05-15T07:08:18.056Z,58.47
2018-05-15T07:09:18.045Z,59.08
2018-05-15T07:10:18.034Z,58.57
2018-05-15T07:11:18.027Z,58.60
2018-05-15T07:12:18.014Z,58.57
2018-05-15T07:13:18.001Z,58.02
2018-05-15T07:14:17.991Z,59.37
2018-05-15T07:15:17.986Z,59.27
2018-05-15T07:16:17.971Z,58.79
2018-05-15T07:17:17.959Z,59.75
2018-05-15T07:18:17.948Z,59.01
2018-05-15T07:19:17.940Z,58.82
2018-05-15T07:20:17.926Z,58.34
2018-05-15T07:21:17.916Z,57.98
2018-05-15T07:22:17.907Z,57.02
2018-05-15T07:23:17.896Z,56.44
2018-05-15T07:24:17.885Z,56.44
2018-05-15T07:25:17.874Z,55.87
2018-05-15T07:26:17.865Z,57.40
2018-05-15T07:27:17.872Z,57.69
2018-05-15T07:28:17.844Z,55.41
2018-05-15T07:29:17.836Z,54.93
2018-05-15T07:30:17.827Z,56.76
2018-05-15T07:31:17.816Z,55.70
2018-05-15T07:32:17.805Z,54.35
2018-05-15T07:33:17.795Z,54.44
2018-05-15T07:34:17.789Z,53.80
2018-05-15T07:35:17.776Z,53.44
2018-05-15T07:36:17.768Z,54.02
2018-05-15T07:37:17.757Z,53.15
2018-05-15T07:38:17.747Z,53.17
2018-05-15T07:39:17.745Z,52.23
2018-05-15T07:40:17.733Z,50.98
2018-05-15T07:41:17.720Z,51.01
2018-05-15T07:42:17.711Z,50.91
2018-05-15T07:43:17.703Z,49.68
2018-05-15T07:44:17.693Z,48.52
2018-05-15T07:45:17.684Z,48.93
2018-05-15T07:46:17.675Z,47.77
2018-05-15T07:47:17.672Z,46.83
2018-05-15T07:48:17.766Z,46.08
2018-05-15T07:49:17.651Z,45.71
2018-05-15T07:50:17.642Z,44.37
2018-05-15T07:51:17.634Z,43.72
2018-05-15T07:52:17.628Z,42.85
2018-05-15T07:53:17.622Z,43.26
2018-05-15T07:54:17.617Z,41.74
2018-05-15T07:55:17.607Z,40.29
2018-05-15T07:56:17.600Z,39.14
2018-05-15T07:57:17.596Z,37.90
2018-05-15T07:58:17.590Z,37.72
2018-05-15T07:59:17.588Z,37.64
2018-05-15T08:00:17.581Z,36.96
2018-05-15T08:01:17.578Z,36.30
2018-05-15T08:02:17.574Z,36.10
2018-05-15T08:03:17.571Z,36.51
2018-05-15T08:04:17.618Z,35.85
2018-05-15T08:05:17.571Z,35.47
2018-05-15T08:06:17.563Z,34.61
2018-05-15T08:07:17.560Z,33.85
2018-05-15T08:08:17.558Z,33.65
2018-05-15T08:09:17.551Z,32.79
2018-05-15T08:10:17.551Z,31.84
2018-05-15T08:11:17.552Z,32.13
2018-05-15T08:12:17.544Z,31.25
2018-05-15T08:13:17.548Z,31.93
2018-05-15T08:14:17.544Z,30.57
2018-05-15T08:15:17.541Z,28.91
2018-05-15T08:16:17.632Z,29.57
2018-05-15T08:17:17.539Z,30.94
2018-05-15T08:18:17.537Z,29.10
2018-05-15T08:19:17.543Z,29.30
2018-05-15T08:20:17.533Z,30.58
2018-05-15T08:21:17.538Z,28.04
2018-05-15T08:22:17.659Z,28.63
2018-05-15T08:23:17.533Z,29.21
2018-05-15T08:24:17.536Z,28.05
2018-05-15T08:25:17.532Z,28.85
2018-05-15T08:26:17.531Z,28.67
2018-05-15T08:27:17.531Z,28.00
2018-05-15T08:28:17.532Z,26.82
2018-05-15T08:29:17.531Z,25.55
2018-05-15T08:30:17.531Z,26.42
2018-05-15T08:31:17.530Z,27.88
2018-05-15T08:32:17.531Z,28.47
2018-05-15T08:33:17.531Z,27.88
2018-05-15T08:34:17.532Z,28.68
2018-05-15T08:35:17.543Z,28.30
2018-05-15T08:36:17.531Z,27.03
2018-05-15T08:37:17.545Z,25.07
2018-05-15T08:38:17.533Z,25.66
2018-05-15T08:39:17.533Z,25.37
2018-05-15T08:40:17.548Z,25.77
2018-05-15T08:41:17.535Z,24.31
2018-05-15T08:42:17.544Z,23.24
2018-05-15T08:43:17.546Z,23.83
2018-05-15T08:44:17.541Z,22.96
2018-05-15T08:45:17.611Z,23.27
2018-05-15T08:46:17.547Z,23.49
2018-05-15T08:47:17.543Z,21.31
2018-05-15T08:48:17.541Z,23.58
2018-05-15T08:49:17.543Z,22.01
2018-05-15T08:50:17.543Z,22.41
2018-05-15T08:51:17.542Z,21.90
2018-05-15T08:52:17.545Z,21.42
2018-05-15T08:53:17.548Z,21.42
2018-05-15T08:54:17.547Z,21.22
2018-05-15T08:55:17.550Z,22.11
2018-05-15T08:56:17.550Z,21.53
2018-05-15T08:57:17.552Z,21.53
2018-05-15T08:58:17.554Z,19.96
2018-05-15T08:59:17.555Z,21.33
2018-05-15T09:00:17.556Z,21.80
2018-05-15T09:01:17.563Z,22.88
2018-05-15T09:02:17.560Z,21.22
2018-05-15T09:03:17.562Z,21.61
2018-05-15T09:04:17.565Z,22.01
2018-05-15T09:05:17.568Z,21.73
2018-05-15T09:06:17.568Z,20.26
2018-05-15T09:07:17.570Z,18.88
2018-05-15T09:08:17.573Z,19.29
2018-05-15T09:09:17.570Z,18.29
2018-05-15T09:10:17.573Z,19.77
2018-05-15T09:11:17.580Z,21.06
2018-05-15T09:12:17.577Z,18.51
2018-05-15T09:13:17.580Z,18.90
2018-05-15T09:14:17.582Z,18.71
2018-05-15T09:15:17.584Z,19.89
2018-05-15T09:16:17.586Z,20.00
2018-05-15T09:17:17.589Z,18.52
2018-05-15T09:18:17.597Z,18.02
2018-05-15T09:19:17.660Z,19.60
2018-05-15T09:20:17.596Z,19.21
2018-05-15T09:21:17.606Z,18.02
2018-05-15T09:22:17.604Z,17.93
2018-05-15T09:23:17.604Z,18.01
2018-05-15T09:24:17.614Z,20.47
2018-05-15T09:25:17.611Z,20.06
2018-05-15T09:26:17.613Z,20.57
2018-05-15T09:27:17.614Z,19.58
2018-05-15T09:28:17.616Z,20.27
2018-05-15T09:29:17.643Z,18.80
2018-05-15T09:30:17.625Z,18.80
2018-05-15T09:31:17.627Z,19.58
2018-05-15T09:32:17.631Z,20.57
2018-05-15T09:33:17.635Z,19.21
2018-05-15T09:34:17.637Z,19.12
2018-05-15T09:35:17.645Z,18.62
2018-05-15T09:36:17.645Z,17.92
2018-05-15T09:37:17.648Z,18.79
2018-05-15T09:38:17.652Z,19.58
2018-05-15T09:39:17.654Z,19.27
2018-05-15T09:40:17.657Z,19.76
2018-05-15T09:41:17.663Z,20.04
2018-05-15T09:42:17.667Z,21.59
2018-05-15T09:43:17.671Z,21.28
2018-05-15T09:44:17.670Z,22.45
2018-05-15T09:45:17.673Z,21.26
2018-05-15T09:46:17.678Z,23.60
2018-05-15T09:47:17.680Z,23.90
2018-05-15T09:48:17.681Z,23.31
2018-05-15T09:49:17.684Z,22.91
2018-05-15T09:50:17.686Z,23.98
2018-05-15T09:51:17.687Z,23.48
2018-05-15T09:52:17.769Z,23.00
2018-05-15T09:53:17.694Z,24.58
2018-05-15T09:54:17.694Z,23.00
2018-05-15T09:55:17.699Z,24.37
2018-05-15T09:56:17.700Z,22.91
2018-05-15T09:57:17.701Z,23.10
2018-05-15T09:58:17.704Z,23.39
2018-05-15T09:59:17.706Z,23.19
2018-05-15T10:00:17.707Z,23.18
2018-05-15T10:01:17.709Z,25.52
2018-05-15T10:02:17.714Z,25.43
2018-05-15T10:03:17.711Z,24.92
2018-05-15T10:04:17.714Z,25.23
2018-05-15T10:05:17.715Z,24.95
2018-05-15T10:06:17.717Z,25.83
2018-05-15T10:07:17.719Z,24.26
2018-05-15T10:08:17.729Z,24.46
2018-05-15T10:09:17.721Z,25.24
2018-05-15T10:10:17.724Z,25.71
2018-05-15T10:11:17.724Z,25.60
2018-05-15T10:12:17.724Z,27.16
2018-05-15T10:13:17.725Z,28.13
2018-05-15T10:14:17.776Z,27.73
2018-05-15T10:15:17.732Z,26.66
2018-05-15T10:16:17.729Z,26.45
2018-05-15T10:17:17.731Z,26.43
2018-05-15T10:18:17.732Z,27.87
2018-05-15T10:19:17.732Z,29.22
2018-05-15T10:20:17.732Z,29.61
2018-05-15T10:21:17.732Z,28.43
2018-05-15T10:22:17.735Z,28.72
2018-05-15T10:23:17.734Z,28.70
2018-05-15T10:24:17.734Z,29.49
2018-05-15T10:25:17.736Z,29.58
2018-05-15T10:26:17.736Z,30.55
2018-05-15T10:27:17.737Z,30.77
2018-05-15T10:28:17.746Z,30.68
2018-05-15T10:29:17.735Z,29.52
2018-05-15T10:30:17.735Z,30.80
2018-05-15T10:31:17.734Z,30.90
2018-05-15T10:32:17.802Z,29.63
2018-05-15T10:33:17.735Z,28.67
2018-05-15T10:34:17.734Z,27.59
2018-05-15T10:35:17.733Z,28.65
2018-05-15T10:36:17.733Z,28.28
2018-05-15T10:37:17.787Z,29.85
2018-05-15T10:38:17.735Z,29.47
2018-05-15T10:39:17.740Z,29.30
2018-05-15T10:40:17.733Z,27.54
2018-05-15T10:41:17.732Z,29.00
2018-05-15T10:42:17.733Z,28.81
2018-05-15T10:43:17.732Z,27.83
2018-05-15T10:44:17.729Z,27.26
2018-05-15T10:45:17.732Z,26.97
2018-05-15T10:46:17.732Z,27.25
2018-05-15T10:47:17.729Z,27.93
2018-05-15T10:48:17.733Z,28.32
2018-05-15T10:49:17.732Z,26.74
2018-05-15T10:50:17.731Z,27.83
2018-05-15T10:51:17.731Z,27.81
2018-05-15T10:52:17.737Z,26.82
2018-05-15T10:53:17.733Z,27.80
2018-05-15T10:54:17.730Z,28.47
2018-05-15T10:55:17.733Z,29.43
2018-05-15T10:56:17.730Z,28.65
2018-05-15T10:57:17.733Z,28.65
2018-05-15T10:58:17.729Z,30.11
2018-05-15T10:59:17.729Z,30.80
2018-05-15T11:00:17.730Z,30.80
2018-05-15T11:01:17.734Z,29.72
2018-05-15T11:02:17.732Z,30.11
2018-05-15T11:03:17.728Z,29.63
2018-05-15T11:04:17.728Z,29.72
2018-05-15T11:05:17.729Z,28.36
2018-05-15T11:06:17.782Z,29.03
2018-05-15T11:07:17.728Z,30.29
2018-05-15T11:08:17.725Z,29.89
2018-05-15T11:09:17.728Z,30.08
2018-05-15T11:10:17.725Z,29.30
2018-05-15T11:11:17.727Z,30.26
2018-05-15T11:12:17.725Z,29.88
2018-05-15T11:13:18.046Z,31.14
2018-05-15T11:14:17.725Z,29.78
2018-05-15T11:15:17.724Z,30.94
2018-05-15T11:16:17.721Z,30.55
2018-05-15T11:17:17.719Z,29.38
2018-05-15T11:18:17.720Z,30.44
2018-05-15T11:19:17.722Z,30.82
2018-05-15T11:20:17.716Z,31.70
2018-05-15T11:21:17.717Z,31.98
2018-05-15T11:22:17.716Z,33.06
2018-05-15T11:23:17.715Z,32.37
2018-05-15T11:24:17.711Z,32.49
2018-05-15T11:25:17.711Z,31.61
2018-05-15T11:26:17.710Z,31.40
2018-05-15T11:27:17.711Z,31.81
2018-05-15T11:28:17.707Z,31.13
2018-05-15T11:29:17.708Z,31.51
2018-05-15T11:30:17.705Z,32.02
2018-05-15T11:31:17.705Z,31.63
2018-05-15T11:32:17.703Z,30.94
2018-05-15T11:33:17.702Z,31.54
2018-05-15T11:34:17.701Z,29.88
2018-05-15T11:35:17.702Z,30.55
2018-05-15T11:36:17.698Z,32.31
2018-05-15T11:37:17.699Z,31.14
2018-05-15T11:38:17.697Z,30.28
2018-05-15T11:39:17.693Z,31.16
2018-05-15T11:40:17.692Z,30.47
2018-05-15T11:41:17.706Z,30.18
2018-05-15T11:42:17.693Z,31.06
2018-05-15T11:43:17.689Z,30.47
2018-05-15T11:44:17.687Z,29.39
2018-05-15T11:45:17.687Z,29.38
2018-05-15T11:46:17.686Z,29.08
2018-05-15T11:47:17.728Z,29.76
2018-05-15T11:48:18.346Z,30.93
2018-05-15T11:49:18.627Z,29.76
2018-05-15T11:50:18.399Z,30.74
2018-05-15T11:51:18.315Z,31.60
2018-05-15T11:52:18.629Z,32.20
2018-05-15T11:53:18.313Z,31.01
2018-05-15T11:54:17.678Z,30.83
2018-05-15T11:55:17.676Z,30.91
2018-05-15T11:56:17.672Z,31.50
2018-05-15T11:57:17.675Z,31.79
2018-05-15T11:58:17.705Z,31.61
2018-05-15T11:59:17.675Z,31.51
2018-05-15T12:00:17.666Z,30.35
2018-05-15T12:01:17.667Z,30.05
2018-05-15T12:02:17.664Z,30.54
2018-05-15T12:03:17.664Z,30.93
2018-05-15T12:04:17.673Z,31.98
2018-05-15T12:05:17.667Z,31.71
2018-05-15T12:06:17.659Z,31.81
2018-05-15T12:07:17.659Z,31.22
2018-05-15T12:08:17.676Z,31.50
2018-05-15T12:09:17.654Z,31.50
2018-05-15T12:10:17.660Z,32.18
2018-05-15T12:11:17.653Z,32.10
2018-05-15T12:12:17.650Z,32.39
2018-05-15T12:13:17.658Z,31.22
2018-05-15T12:14:17.647Z,31.98
2018-05-15T12:15:17.647Z,32.67
2018-05-15T12:16:17.654Z,32.55
2018-05-15T12:17:17.644Z,32.65
2018-05-15T12:18:17.641Z,33.12
2018-05-15T12:19:17.644Z,33.41
2018-05-15T12:20:17.637Z,33.99
2018-05-15T12:21:17.639Z,33.29
2018-05-15T12:22:17.633Z,34.56
2018-05-15T12:23:17.635Z,34.36
2018-05-15T12:24:17.631Z,33.99
2018-05-15T12:25:17.629Z,34.09
2018-05-15T12:26:17.626Z,33.70
2018-05-15T12:27:17.626Z,33.51
2018-05-15T12:28:17.623Z,33.12
2018-05-15T12:29:17.621Z,33.70
2018-05-15T12:30:17.617Z,34.58
2018-05-15T12:31:17.625Z,33.41
2018-05-15T12:32:17.613Z,32.71
2018-05-15T12:33:17.612Z,33.59
2018-05-15T12:34:17.611Z,34.56
2018-05-15T12:35:17.609Z,36.61
2018-05-15T12:36:17.606Z,33.20
2018-05-15T12:37:17.606Z,33.20
2018-05-15T12:38:17.601Z,33.80
2018-05-15T12:39:17.599Z,33.02
2018-05-15T12:40:17.597Z,34.28
2018-05-15T12:41:17.603Z,33.61
2018-05-15T12:42:17.592Z,34.77
2018-05-15T12:43:17.590Z,34.98
2018-05-15T12:44:17.587Z,35.47
2018-05-15T12:45:17.587Z,33.51
2018-05-15T12:46:17.582Z,34.09
2018-05-15T12:47:17.578Z,33.80
2018-05-15T12:48:17.617Z,33.51
2018-05-15T12:49:17.574Z,34.58
2018-05-15T12:50:17.575Z,34.85
2018-05-15T12:51:17.569Z,35.72
2018-05-15T12:52:17.568Z,34.46